sensor_id;sensor_type;location;lat;lon;timestamp;P1;durP1;ratioP1;P2;durP2;ratioP2
5923;SDS011;2987;50.884;14.818;2023-07-08T00:01:54;9.00;;;8.10;;
5923;SDS011;2987;50.884;14.818;2023-07-08T00:04:20;10.10;;;8.67;;
5923;SDS011;2987;50.884;14.818;2023-07-08T00:06:47;9.77;;;7.83;;
5923;SDS011;2987;50.884;14.818;2023-07-08T00:09:13;8.10;;;7.30;;
5923;SDS011;2987;50.884;14.818;2023-07-08T00:11:39;15.17;;;8.63;;
5923;SDS011;2987;50.884;14.818;2023-07-08T00:14:05;10.03;;;8.00;;
5923;SDS011;2987;50.884;14.818;2023-07-08T00:16:31;8.77;;;7.30;;
5923;SDS011;2987;50.884;14.818;2023-07-08T00:18:57;8.17;;;6.87;;
5923;SDS011;2987;50.884;14.818;2023-07-08T00:21:23;9.43;;;7.00;;
5923;SDS011;2987;50.884;14.818;2023-07-08T00:23:49;7.80;;;7.00;;
5923;SDS011;2987;50.884;14.818;2023-07-08T00:26:21;8.83;;;7.40;;
5923;SDS011;2987;50.884;14.818;2023-07-08T00:28:50;7.93;;;6.67;;
5923;SDS011;2987;50.884;14.818;2023-07-08T00:31:17;8.07;;;7.27;;
5923;SDS011;2987;50.884;14.818;2023-07-08T00:33:49;10.00;;;7.77;;
5923;SDS011;2987;50.884;14.818;2023-07-08T00:36:16;8.80;;;7.43;;
5923;SDS011;2987;50.884;14.818;2023-07-08T00:38:42;8.80;;;7.90;;
5923;SDS011;2987;50.884;14.818;2023-07-08T00:41:11;8.97;;;8.07;;
5923;SDS011;2987;50.884;14.818;2023-07-08T00:43:45;9.63;;;7.60;;
5923;SDS011;2987;50.884;14.818;2023-07-08T00:46:33;9.13;;;7.30;;
5923;SDS011;2987;50.884;14.818;2023-07-08T00:49:19;10.97;;;8.40;;
5923;SDS011;2987;50.884;14.818;2023-07-08T00:52:15;10.83;;;8.03;;
5923;SDS011;2987;50.884;14.818;2023-07-08T00:54:44;9.07;;;8.13;;
5923;SDS011;2987;50.884;14.818;2023-07-08T00:57:11;9.60;;;7.93;;
5923;SDS011;2987;50.884;14.818;2023-07-08T00:59:39;7.97;;;7.17;;
5923;SDS011;2987;50.884;14.818;2023-07-08T01:02:11;9.47;;;8.23;;
5923;SDS011;2987;50.884;14.818;2023-07-08T01:04:40;11.13;;;7.37;;
5923;SDS011;2987;50.884;14.818;2023-07-08T01:07:15;13.30;;;8.60;;
5923;SDS011;2987;50.884;14.818;2023-07-08T01:09:47;9.37;;;8.43;;
5923;SDS011;2987;50.884;14.818;2023-07-08T01:12:19;8.93;;;7.93;;
5923;SDS011;2987;50.884;14.818;2023-07-08T01:14:49;8.70;;;7.40;;
5923;SDS011;2987;50.884;14.818;2023-07-08T01:17:20;10.10;;;7.70;;
5923;SDS011;2987;50.884;14.818;2023-07-08T01:19:47;10.63;;;7.23;;
5923;SDS011;2987;50.884;14.818;2023-07-08T01:22:14;9.80;;;7.10;;
5923;SDS011;2987;50.884;14.818;2023-07-08T01:24:41;8.03;;;7.23;;
5923;SDS011;2987;50.884;14.818;2023-07-08T01:27:10;10.07;;;7.47;;
5923;SDS011;2987;50.884;14.818;2023-07-08T01:29:39;11.40;;;7.27;;
5923;SDS011;2987;50.884;14.818;2023-07-08T01:32:05;9.77;;;7.77;;
5923;SDS011;2987;50.884;14.818;2023-07-08T01:34:32;8.40;;;7.60;;
5923;SDS011;2987;50.884;14.818;2023-07-08T01:36:59;8.40;;;7.57;;
5923;SDS011;2987;50.884;14.818;2023-07-08T01:39:29;8.40;;;7.53;;
5923;SDS011;2987;50.884;14.818;2023-07-08T01:41:56;10.77;;;7.47;;
5923;SDS011;2987;50.884;14.818;2023-07-08T01:44:28;10.97;;;8.40;;
5923;SDS011;2987;50.884;14.818;2023-07-08T01:47:02;19.20;;;10.43;;
5923;SDS011;2987;50.884;14.818;2023-07-08T01:49:37;20.13;;;9.90;;
5923;SDS011;2987;50.884;14.818;2023-07-08T01:52:06;17.50;;;10.07;;
5923;SDS011;2987;50.884;14.818;2023-07-08T01:54:33;14.17;;;10.17;;
5923;SDS011;2987;50.884;14.818;2023-07-08T01:56:59;14.97;;;8.77;;
5923;SDS011;2987;50.884;14.818;2023-07-08T01:59:26;11.90;;;8.33;;
5923;SDS011;2987;50.884;14.818;2023-07-08T02:01:52;12.23;;;8.47;;
5923;SDS011;2987;50.884;14.818;2023-07-08T02:04:22;12.07;;;8.43;;
5923;SDS011;2987;50.884;14.818;2023-07-08T02:06:51;11.43;;;8.10;;
5923;SDS011;2987;50.884;14.818;2023-07-08T02:09:22;9.50;;;7.20;;
5923;SDS011;2987;50.884;14.818;2023-07-08T02:11:48;8.43;;;7.50;;
5923;SDS011;2987;50.884;14.818;2023-07-08T02:14:14;16.17;;;7.90;;
5923;SDS011;2987;50.884;14.818;2023-07-08T02:16:40;9.30;;;7.50;;
5923;SDS011;2987;50.884;14.818;2023-07-08T02:19:07;10.33;;;7.57;;
5923;SDS011;2987;50.884;14.818;2023-07-08T02:21:33;8.37;;;6.87;;
5923;SDS011;2987;50.884;14.818;2023-07-08T02:23:59;9.13;;;6.50;;
5923;SDS011;2987;50.884;14.818;2023-07-08T02:26:26;7.50;;;6.70;;
5923;SDS011;2987;50.884;14.818;2023-07-08T02:28:52;9.93;;;6.87;;
5923;SDS011;2987;50.884;14.818;2023-07-08T02:31:19;14.47;;;7.67;;
5923;SDS011;2987;50.884;14.818;2023-07-08T02:33:47;8.30;;;7.20;;
5923;SDS011;2987;50.884;14.818;2023-07-08T02:36:13;7.67;;;6.87;;
5923;SDS011;2987;50.884;14.818;2023-07-08T02:38:39;9.80;;;7.27;;
5923;SDS011;2987;50.884;14.818;2023-07-08T02:41:07;9.03;;;6.93;;
5923;SDS011;2987;50.884;14.818;2023-07-08T02:43:34;9.53;;;7.03;;
5923;SDS011;2987;50.884;14.818;2023-07-08T02:46:00;9.10;;;7.33;;
5923;SDS011;2987;50.884;14.818;2023-07-08T02:48:26;10.13;;;7.40;;
5923;SDS011;2987;50.884;14.818;2023-07-08T02:50:58;13.13;;;8.10;;
5923;SDS011;2987;50.884;14.818;2023-07-08T02:53:25;12.33;;;8.07;;
5923;SDS011;2987;50.884;14.818;2023-07-08T02:55:52;16.30;;;8.10;;
5923;SDS011;2987;50.884;14.818;2023-07-08T02:58:18;11.90;;;7.53;;
5923;SDS011;2987;50.884;14.818;2023-07-08T03:00:44;15.63;;;8.33;;
5923;SDS011;2987;50.884;14.818;2023-07-08T03:03:10;16.63;;;8.83;;
5923;SDS011;2987;50.884;14.818;2023-07-08T03:05:36;13.17;;;9.23;;
5923;SDS011;2987;50.884;14.818;2023-07-08T03:08:02;13.37;;;8.83;;
5923;SDS011;2987;50.884;14.818;2023-07-08T03:10:28;12.10;;;7.67;;
5923;SDS011;2987;50.884;14.818;2023-07-08T03:12:54;10.33;;;7.37;;
5923;SDS011;2987;50.884;14.818;2023-07-08T03:15:22;10.17;;;7.17;;
5923;SDS011;2987;50.884;14.818;2023-07-08T03:17:48;8.53;;;6.30;;
5923;SDS011;2987;50.884;14.818;2023-07-08T03:20:14;9.03;;;7.53;;
5923;SDS011;2987;50.884;14.818;2023-07-08T03:22:40;8.80;;;6.87;;
5923;SDS011;2987;50.884;14.818;2023-07-08T03:25:06;8.83;;;7.40;;
5923;SDS011;2987;50.884;14.818;2023-07-08T03:27:32;7.80;;;7.00;;
5923;SDS011;2987;50.884;14.818;2023-07-08T03:29:59;7.70;;;6.70;;
5923;SDS011;2987;50.884;14.818;2023-07-08T03:32:25;8.17;;;6.40;;
5923;SDS011;2987;50.884;14.818;2023-07-08T03:34:52;7.97;;;6.50;;
5923;SDS011;2987;50.884;14.818;2023-07-08T03:37:19;10.53;;;6.23;;
5923;SDS011;2987;50.884;14.818;2023-07-08T03:39:45;11.23;;;6.70;;
5923;SDS011;2987;50.884;14.818;2023-07-08T03:42:11;7.03;;;6.00;;
5923;SDS011;2987;50.884;14.818;2023-07-08T03:44:37;6.20;;;5.60;;
5923;SDS011;2987;50.884;14.818;2023-07-08T03:47:04;8.33;;;6.10;;
5923;SDS011;2987;50.884;14.818;2023-07-08T03:49:30;9.00;;;5.90;;
5923;SDS011;2987;50.884;14.818;2023-07-08T03:51:56;10.07;;;5.50;;
5923;SDS011;2987;50.884;14.818;2023-07-08T03:54:23;9.83;;;6.37;;
5923;SDS011;2987;50.884;14.818;2023-07-08T03:56:52;5.60;;;5.10;;
5923;SDS011;2987;50.884;14.818;2023-07-08T03:59:20;9.53;;;4.70;;
5923;SDS011;2987;50.884;14.818;2023-07-08T04:01:46;5.53;;;4.40;;
5923;SDS011;2987;50.884;14.818;2023-07-08T04:04:13;6.47;;;4.57;;
5923;SDS011;2987;50.884;14.818;2023-07-08T04:06:42;5.67;;;4.40;;
5923;SDS011;2987;50.884;14.818;2023-07-08T04:09:09;4.43;;;3.97;;
5923;SDS011;2987;50.884;14.818;2023-07-08T04:11:35;4.07;;;3.53;;
5923;SDS011;2987;50.884;14.818;2023-07-08T04:14:01;5.13;;;3.70;;
5923;SDS011;2987;50.884;14.818;2023-07-08T04:16:29;4.77;;;3.70;;
5923;SDS011;2987;50.884;14.818;2023-07-08T04:18:56;4.80;;;3.40;;
5923;SDS011;2987;50.884;14.818;2023-07-08T04:21:23;4.83;;;3.13;;
5923;SDS011;2987;50.884;14.818;2023-07-08T04:23:51;3.97;;;2.80;;
5923;SDS011;2987;50.884;14.818;2023-07-08T04:26:17;4.90;;;3.20;;
5923;SDS011;2987;50.884;14.818;2023-07-08T04:28:44;4.80;;;3.30;;
5923;SDS011;2987;50.884;14.818;2023-07-08T04:31:10;6.33;;;3.20;;
5923;SDS011;2987;50.884;14.818;2023-07-08T04:33:36;5.57;;;3.30;;
5923;SDS011;2987;50.884;14.818;2023-07-08T04:36:02;3.50;;;3.20;;
5923;SDS011;2987;50.884;14.818;2023-07-08T04:38:29;4.13;;;3.43;;
5923;SDS011;2987;50.884;14.818;2023-07-08T04:40:58;4.40;;;3.47;;
5923;SDS011;2987;50.884;14.818;2023-07-08T04:43:24;5.53;;;3.47;;
5923;SDS011;2987;50.884;14.818;2023-07-08T04:45:54;4.67;;;3.30;;
5923;SDS011;2987;50.884;14.818;2023-07-08T04:48:21;5.07;;;3.17;;
5923;SDS011;2987;50.884;14.818;2023-07-08T04:53:15;4.53;;;2.97;;
5923;SDS011;2987;50.884;14.818;2023-07-08T04:55:42;3.30;;;3.00;;
5923;SDS011;2987;50.884;14.818;2023-07-08T04:58:12;5.83;;;3.27;;
5923;SDS011;2987;50.884;14.818;2023-07-08T05:00:39;3.57;;;2.80;;
5923;SDS011;2987;50.884;14.818;2023-07-08T05:03:05;3.43;;;3.13;;
5923;SDS011;2987;50.884;14.818;2023-07-08T05:05:31;4.67;;;3.30;;
5923;SDS011;2987;50.884;14.818;2023-07-08T05:07:57;5.10;;;2.93;;
5923;SDS011;2987;50.884;14.818;2023-07-08T05:10:23;8.50;;;3.13;;
5923;SDS011;2987;50.884;14.818;2023-07-08T05:12:49;6.10;;;2.97;;
5923;SDS011;2987;50.884;14.818;2023-07-08T05:15:15;3.90;;;3.20;;
5923;SDS011;2987;50.884;14.818;2023-07-08T05:17:41;5.30;;;3.10;;
5923;SDS011;2987;50.884;14.818;2023-07-08T05:20:09;4.27;;;2.80;;
5923;SDS011;2987;50.884;14.818;2023-07-08T05:22:38;5.73;;;3.10;;
5923;SDS011;2987;50.884;14.818;2023-07-08T05:25:04;6.80;;;2.90;;
5923;SDS011;2987;50.884;14.818;2023-07-08T05:27:31;7.33;;;2.93;;
5923;SDS011;2987;50.884;14.818;2023-07-08T05:30:00;5.17;;;3.00;;
5923;SDS011;2987;50.884;14.818;2023-07-08T05:32:26;3.87;;;3.07;;
5923;SDS011;2987;50.884;14.818;2023-07-08T05:34:53;6.47;;;3.13;;
5923;SDS011;2987;50.884;14.818;2023-07-08T05:37:19;5.77;;;2.83;;
5923;SDS011;2987;50.884;14.818;2023-07-08T05:39:51;3.43;;;2.97;;
5923;SDS011;2987;50.884;14.818;2023-07-08T05:42:19;3.90;;;2.97;;
5923;SDS011;2987;50.884;14.818;2023-07-08T05:44:46;3.20;;;2.90;;
5923;SDS011;2987;50.884;14.818;2023-07-08T05:47:13;7.20;;;2.83;;
5923;SDS011;2987;50.884;14.818;2023-07-08T05:49:39;6.00;;;3.30;;
5923;SDS011;2987;50.884;14.818;2023-07-08T05:52:05;4.77;;;2.80;;
5923;SDS011;2987;50.884;14.818;2023-07-08T05:54:37;4.37;;;3.00;;
5923;SDS011;2987;50.884;14.818;2023-07-08T05:57:04;6.83;;;3.10;;
5923;SDS011;2987;50.884;14.818;2023-07-08T05:59:32;6.17;;;3.03;;
5923;SDS011;2987;50.884;14.818;2023-07-08T06:01:59;2.80;;;2.60;;
5923;SDS011;2987;50.884;14.818;2023-07-08T06:04:25;4.20;;;2.70;;
5923;SDS011;2987;50.884;14.818;2023-07-08T06:06:51;4.90;;;2.73;;
5923;SDS011;2987;50.884;14.818;2023-07-08T06:09:17;4.60;;;2.73;;
5923;SDS011;2987;50.884;14.818;2023-07-08T06:11:43;6.77;;;2.60;;
5923;SDS011;2987;50.884;14.818;2023-07-08T06:14:09;3.60;;;2.80;;
5923;SDS011;2987;50.884;14.818;2023-07-08T06:16:35;8.63;;;2.97;;
5923;SDS011;2987;50.884;14.818;2023-07-08T06:19:01;4.70;;;3.10;;
5923;SDS011;2987;50.884;14.818;2023-07-08T06:21:27;2.83;;;2.53;;
5923;SDS011;2987;50.884;14.818;2023-07-08T06:23:53;2.90;;;2.57;;
5923;SDS011;2987;50.884;14.818;2023-07-08T06:26:19;5.10;;;2.77;;
5923;SDS011;2987;50.884;14.818;2023-07-08T06:28:44;6.87;;;3.00;;
5923;SDS011;2987;50.884;14.818;2023-07-08T06:31:10;6.23;;;2.77;;
5923;SDS011;2987;50.884;14.818;2023-07-08T06:33:36;7.27;;;3.17;;
5923;SDS011;2987;50.884;14.818;2023-07-08T06:36:02;3.10;;;2.77;;
5923;SDS011;2987;50.884;14.818;2023-07-08T06:38:29;2.93;;;2.50;;
5923;SDS011;2987;50.884;14.818;2023-07-08T06:40:55;6.43;;;2.53;;
5923;SDS011;2987;50.884;14.818;2023-07-08T06:43:21;4.47;;;2.90;;
5923;SDS011;2987;50.884;14.818;2023-07-08T06:45:50;3.70;;;2.73;;
5923;SDS011;2987;50.884;14.818;2023-07-08T06:48:16;4.17;;;2.80;;
5923;SDS011;2987;50.884;14.818;2023-07-08T06:50:42;3.40;;;2.93;;
5923;SDS011;2987;50.884;14.818;2023-07-08T06:53:13;2.27;;;2.00;;
5923;SDS011;2987;50.884;14.818;2023-07-08T06:55:39;6.47;;;2.73;;
5923;SDS011;2987;50.884;14.818;2023-07-08T06:58:06;3.77;;;2.47;;
5923;SDS011;2987;50.884;14.818;2023-07-08T07:00:32;4.20;;;2.50;;
5923;SDS011;2987;50.884;14.818;2023-07-08T07:02:58;2.77;;;2.50;;
5923;SDS011;2987;50.884;14.818;2023-07-08T07:05:24;2.97;;;2.50;;
5923;SDS011;2987;50.884;14.818;2023-07-08T07:07:50;3.60;;;2.47;;
5923;SDS011;2987;50.884;14.818;2023-07-08T07:10:18;5.77;;;2.60;;
5923;SDS011;2987;50.884;14.818;2023-07-08T07:12:45;5.03;;;2.67;;
5923;SDS011;2987;50.884;14.818;2023-07-08T07:15:11;4.50;;;2.57;;
5923;SDS011;2987;50.884;14.818;2023-07-08T07:17:37;4.47;;;2.37;;
5923;SDS011;2987;50.884;14.818;2023-07-08T07:20:03;5.37;;;2.93;;
5923;SDS011;2987;50.884;14.818;2023-07-08T07:22:31;4.27;;;2.60;;
5923;SDS011;2987;50.884;14.818;2023-07-08T07:24:57;3.20;;;2.53;;
5923;SDS011;2987;50.884;14.818;2023-07-08T07:27:24;3.03;;;2.70;;
5923;SDS011;2987;50.884;14.818;2023-07-08T07:29:50;3.53;;;2.77;;
5923;SDS011;2987;50.884;14.818;2023-07-08T07:32:18;4.27;;;2.50;;
5923;SDS011;2987;50.884;14.818;2023-07-08T07:34:49;6.40;;;2.60;;
5923;SDS011;2987;50.884;14.818;2023-07-08T07:37:16;3.00;;;2.70;;
5923;SDS011;2987;50.884;14.818;2023-07-08T07:39:44;2.73;;;2.53;;
5923;SDS011;2987;50.884;14.818;2023-07-08T07:42:11;2.53;;;2.33;;
5923;SDS011;2987;50.884;14.818;2023-07-08T07:44:39;5.93;;;2.60;;
5923;SDS011;2987;50.884;14.818;2023-07-08T07:47:06;4.43;;;2.57;;
5923;SDS011;2987;50.884;14.818;2023-07-08T07:49:33;4.53;;;2.50;;
5923;SDS011;2987;50.884;14.818;2023-07-08T07:51:59;4.57;;;2.50;;
5923;SDS011;2987;50.884;14.818;2023-07-08T07:54:25;3.17;;;2.50;;
5923;SDS011;2987;50.884;14.818;2023-07-08T07:56:52;5.37;;;2.67;;
5923;SDS011;2987;50.884;14.818;2023-07-08T07:59:18;2.97;;;2.50;;
5923;SDS011;2987;50.884;14.818;2023-07-08T08:01:44;3.13;;;2.70;;
5923;SDS011;2987;50.884;14.818;2023-07-08T08:04:11;3.53;;;2.77;;
5923;SDS011;2987;50.884;14.818;2023-07-08T08:06:37;3.93;;;2.90;;
5923;SDS011;2987;50.884;14.818;2023-07-08T08:09:04;4.13;;;3.17;;
5923;SDS011;2987;50.884;14.818;2023-07-08T08:11:30;3.90;;;2.73;;
5923;SDS011;2987;50.884;14.818;2023-07-08T08:13:57;4.63;;;2.37;;
5923;SDS011;2987;50.884;14.818;2023-07-08T08:16:24;5.30;;;2.10;;
5923;SDS011;2987;50.884;14.818;2023-07-08T08:18:50;4.57;;;2.70;;
5923;SDS011;2987;50.884;14.818;2023-07-08T08:21:17;6.03;;;2.40;;
5923;SDS011;2987;50.884;14.818;2023-07-08T08:23:43;9.57;;;3.03;;
5923;SDS011;2987;50.884;14.818;2023-07-08T08:26:09;4.07;;;2.40;;
5923;SDS011;2987;50.884;14.818;2023-07-08T08:28:35;5.13;;;2.93;;
5923;SDS011;2987;50.884;14.818;2023-07-08T08:31:01;6.00;;;2.80;;
5923;SDS011;2987;50.884;14.818;2023-07-08T08:33:27;2.90;;;2.40;;
5923;SDS011;2987;50.884;14.818;2023-07-08T08:35:53;4.73;;;2.93;;
5923;SDS011;2987;50.884;14.818;2023-07-08T08:38:19;3.77;;;2.73;;
5923;SDS011;2987;50.884;14.818;2023-07-08T08:40:45;2.90;;;2.60;;
5923;SDS011;2987;50.884;14.818;2023-07-08T08:43:12;3.90;;;2.70;;
5923;SDS011;2987;50.884;14.818;2023-07-08T08:45:45;3.70;;;2.80;;
5923;SDS011;2987;50.884;14.818;2023-07-08T08:48:27;3.30;;;2.50;;
5923;SDS011;2987;50.884;14.818;2023-07-08T08:50:59;4.37;;;2.60;;
5923;SDS011;2987;50.884;14.818;2023-07-08T08:53:33;4.77;;;2.60;;
5923;SDS011;2987;50.884;14.818;2023-07-08T08:56:03;4.23;;;2.90;;
5923;SDS011;2987;50.884;14.818;2023-07-08T08:58:40;4.70;;;2.93;;
5923;SDS011;2987;50.884;14.818;2023-07-08T09:01:12;7.13;;;2.60;;
5923;SDS011;2987;50.884;14.818;2023-07-08T09:03:56;3.10;;;2.50;;
5923;SDS011;2987;50.884;14.818;2023-07-08T09:06:28;6.43;;;2.43;;
5923;SDS011;2987;50.884;14.818;2023-07-08T09:09:00;4.83;;;2.60;;
5923;SDS011;2987;50.884;14.818;2023-07-08T09:11:36;4.43;;;2.63;;
5923;SDS011;2987;50.884;14.818;2023-07-08T09:14:27;4.97;;;2.90;;
5923;SDS011;2987;50.884;14.818;2023-07-08T09:16:58;5.57;;;2.57;;
5923;SDS011;2987;50.884;14.818;2023-07-08T09:19:52;5.20;;;3.00;;
5923;SDS011;2987;50.884;14.818;2023-07-08T09:22:34;2.97;;;2.60;;
5923;SDS011;2987;50.884;14.818;2023-07-08T09:25:12;6.03;;;2.53;;
5923;SDS011;2987;50.884;14.818;2023-07-08T09:27:49;4.70;;;2.63;;
5923;SDS011;2987;50.884;14.818;2023-07-08T09:30:17;4.70;;;2.50;;
5923;SDS011;2987;50.884;14.818;2023-07-08T09:32:46;3.87;;;2.60;;
5923;SDS011;2987;50.884;14.818;2023-07-08T09:35:23;8.03;;;2.80;;
5923;SDS011;2987;50.884;14.818;2023-07-08T09:37:52;6.50;;;2.67;;
5923;SDS011;2987;50.884;14.818;2023-07-08T09:40:21;5.23;;;2.90;;
5923;SDS011;2987;50.884;14.818;2023-07-08T09:42:55;3.27;;;2.57;;
5923;SDS011;2987;50.884;14.818;2023-07-08T09:45:27;4.97;;;2.83;;
5923;SDS011;2987;50.884;14.818;2023-07-08T09:47:56;6.73;;;2.97;;
5923;SDS011;2987;50.884;14.818;2023-07-08T09:50:26;4.77;;;2.53;;
5923;SDS011;2987;50.884;14.818;2023-07-08T09:52:55;3.93;;;2.80;;
5923;SDS011;2987;50.884;14.818;2023-07-08T09:55:25;6.50;;;3.23;;
5923;SDS011;2987;50.884;14.818;2023-07-08T09:57:52;4.67;;;2.70;;
5923;SDS011;2987;50.884;14.818;2023-07-08T10:05:52;4.20;;;2.73;;
5923;SDS011;2987;50.884;14.818;2023-07-08T10:08:23;5.60;;;2.72;;
5923;SDS011;2987;50.884;14.818;2023-07-08T10:10:54;4.10;;;2.65;;
5923;SDS011;2987;50.884;14.818;2023-07-08T10:18:38;4.80;;;2.90;;
5923;SDS011;2987;50.884;14.818;2023-07-08T10:21:08;3.35;;;3.05;;
5923;SDS011;2987;50.884;14.818;2023-07-08T10:23:59;6.13;;;2.50;;
5923;SDS011;2987;50.884;14.818;2023-07-08T10:29:24;5.35;;;2.70;;
5923;SDS011;2987;50.884;14.818;2023-07-08T10:32:05;4.30;;;2.92;;
5923;SDS011;2987;50.884;14.818;2023-07-08T10:43:25;3.58;;;2.72;;
5923;SDS011;2987;50.884;14.818;2023-07-08T10:57:10;2.53;;;2.33;;
5923;SDS011;2987;50.884;14.818;2023-07-08T11:00:13;3.15;;;2.80;;
5923;SDS011;2987;50.884;14.818;2023-07-08T11:03:02;3.88;;;2.50;;
5923;SDS011;2987;50.884;14.818;2023-07-08T11:08:24;6.22;;;3.00;;
5923;SDS011;2987;50.884;14.818;2023-07-08T11:10:56;5.13;;;2.88;;
5923;SDS011;2987;50.884;14.818;2023-07-08T11:21:10;4.20;;;2.92;;
5923;SDS011;2987;50.884;14.818;2023-07-08T11:23:46;3.47;;;2.70;;
5923;SDS011;2987;50.884;14.818;2023-07-08T11:34:29;3.15;;;2.80;;
5923;SDS011;2987;50.884;14.818;2023-07-08T11:36:56;4.03;;;2.80;;
5923;SDS011;2987;50.884;14.818;2023-07-08T11:44:50;4.05;;;2.97;;
5923;SDS011;2987;50.884;14.818;2023-07-08T11:47:20;5.05;;;3.35;;
5923;SDS011;2987;50.884;14.818;2023-07-08T11:52:19;5.68;;;2.78;;
5923;SDS011;2987;50.884;14.818;2023-07-08T11:54:48;3.90;;;2.65;;
5923;SDS011;2987;50.884;14.818;2023-07-08T12:00:16;4.40;;;2.85;;
5923;SDS011;2987;50.884;14.818;2023-07-08T12:02:48;3.75;;;2.65;;
5923;SDS011;2987;50.884;14.818;2023-07-08T12:05:17;3.78;;;2.95;;
5923;SDS011;2987;50.884;14.818;2023-07-08T12:07:56;3.10;;;2.80;;
5923;SDS011;2987;50.884;14.818;2023-07-08T12:10:26;5.63;;;3.25;;
5923;SDS011;2987;50.884;14.818;2023-07-08T12:13:05;4.00;;;3.03;;
5923;SDS011;2987;50.884;14.818;2023-07-08T12:15:39;4.55;;;3.10;;
5923;SDS011;2987;50.884;14.818;2023-07-08T12:18:11;4.35;;;2.78;;
5923;SDS011;2987;50.884;14.818;2023-07-08T12:23:14;4.80;;;3.22;;
5923;SDS011;2987;50.884;14.818;2023-07-08T12:25:46;3.97;;;2.92;;
5923;SDS011;2987;50.884;14.818;2023-07-08T12:28:12;4.75;;;2.70;;
5923;SDS011;2987;50.884;14.818;2023-07-08T12:30:39;4.13;;;3.00;;
5923;SDS011;2987;50.884;14.818;2023-07-08T12:33:09;4.93;;;3.08;;
5923;SDS011;2987;50.884;14.818;2023-07-08T12:35:40;3.35;;;3.05;;
5923;SDS011;2987;50.884;14.818;2023-07-08T12:38:26;3.42;;;3.13;;
5923;SDS011;2987;50.884;14.818;2023-07-08T12:40:58;3.00;;;2.70;;
5923;SDS011;2987;50.884;14.818;2023-07-08T12:43:27;4.90;;;3.13;;
5923;SDS011;2987;50.884;14.818;2023-07-08T12:45:54;3.40;;;3.10;;
5923;SDS011;2987;50.884;14.818;2023-07-08T12:48:20;3.08;;;2.80;;
5923;SDS011;2987;50.884;14.818;2023-07-08T12:50:46;4.85;;;2.80;;
5923;SDS011;2987;50.884;14.818;2023-07-08T12:53:17;4.35;;;2.85;;
5923;SDS011;2987;50.884;14.818;2023-07-08T12:55:44;4.40;;;2.85;;
5923;SDS011;2987;50.884;14.818;2023-07-08T12:58:12;3.42;;;2.78;;
5923;SDS011;2987;50.884;14.818;2023-07-08T13:00:44;5.10;;;3.22;;
5923;SDS011;2987;50.884;14.818;2023-07-08T13:03:13;5.05;;;3.00;;
5923;SDS011;2987;50.884;14.818;2023-07-08T13:05:43;3.15;;;2.85;;
5923;SDS011;2987;50.884;14.818;2023-07-08T13:08:13;3.85;;;2.83;;
5923;SDS011;2987;50.884;14.818;2023-07-08T13:10:41;4.63;;;3.15;;
5923;SDS011;2987;50.884;14.818;2023-07-08T13:13:11;4.20;;;3.13;;
5923;SDS011;2987;50.884;14.818;2023-07-08T13:15:41;4.13;;;2.65;;
5923;SDS011;2987;50.884;14.818;2023-07-08T13:18:16;3.67;;;2.88;;
5923;SDS011;2987;50.884;14.818;2023-07-08T13:20:46;5.93;;;2.90;;
5923;SDS011;2987;50.884;14.818;2023-07-08T13:23:17;4.28;;;3.00;;
5923;SDS011;2987;50.884;14.818;2023-07-08T13:25:46;5.65;;;3.35;;
5923;SDS011;2987;50.884;14.818;2023-07-08T13:28:16;3.35;;;2.80;;
5923;SDS011;2987;50.884;14.818;2023-07-08T13:31:00;7.65;;;3.33;;
5923;SDS011;2987;50.884;14.818;2023-07-08T13:33:30;5.70;;;3.00;;
5923;SDS011;2987;50.884;14.818;2023-07-08T13:35:57;5.55;;;2.85;;
5923;SDS011;2987;50.884;14.818;2023-07-08T13:38:30;4.22;;;2.83;;
5923;SDS011;2987;50.884;14.818;2023-07-08T13:41:01;4.80;;;3.00;;
5923;SDS011;2987;50.884;14.818;2023-07-08T13:43:31;4.85;;;2.90;;
5923;SDS011;2987;50.884;14.818;2023-07-08T13:45:59;4.53;;;3.13;;
5923;SDS011;2987;50.884;14.818;2023-07-08T13:48:28;3.60;;;3.08;;
5923;SDS011;2987;50.884;14.818;2023-07-08T13:51:17;4.55;;;2.63;;
5923;SDS011;2987;50.884;14.818;2023-07-08T13:53:47;3.00;;;2.63;;
5923;SDS011;2987;50.884;14.818;2023-07-08T13:58:46;4.07;;;3.13;;
5923;SDS011;2987;50.884;14.818;2023-07-08T14:01:16;4.15;;;3.20;;
5923;SDS011;2987;50.884;14.818;2023-07-08T14:03:47;3.20;;;2.90;;
5923;SDS011;2987;50.884;14.818;2023-07-08T14:06:15;3.88;;;3.00;;
5923;SDS011;2987;50.884;14.818;2023-07-08T14:08:42;3.53;;;3.22;;
5923;SDS011;2987;50.884;14.818;2023-07-08T14:11:08;3.58;;;3.28;;
5923;SDS011;2987;50.884;14.818;2023-07-08T14:13:34;3.75;;;3.10;;
5923;SDS011;2987;50.884;14.818;2023-07-08T14:16:01;3.50;;;3.03;;
5923;SDS011;2987;50.884;14.818;2023-07-08T14:18:31;3.15;;;2.85;;
5923;SDS011;2987;50.884;14.818;2023-07-08T14:20:58;4.13;;;3.30;;
5923;SDS011;2987;50.884;14.818;2023-07-08T14:23:24;3.45;;;3.15;;
5923;SDS011;2987;50.884;14.818;2023-07-08T14:25:50;6.75;;;3.47;;
5923;SDS011;2987;50.884;14.818;2023-07-08T14:28:16;6.30;;;2.95;;
5923;SDS011;2987;50.884;14.818;2023-07-08T14:30:44;5.68;;;3.05;;
5923;SDS011;2987;50.884;14.818;2023-07-08T14:33:12;4.47;;;2.85;;
5923;SDS011;2987;50.884;14.818;2023-07-08T14:35:39;4.03;;;3.10;;
5923;SDS011;2987;50.884;14.818;2023-07-08T14:38:09;3.38;;;3.08;;
5923;SDS011;2987;50.884;14.818;2023-07-08T14:40:38;3.30;;;3.00;;
5923;SDS011;2987;50.884;14.818;2023-07-08T14:43:09;5.03;;;2.90;;
5923;SDS011;2987;50.884;14.818;2023-07-08T14:45:43;4.15;;;3.40;;
5923;SDS011;2987;50.884;14.818;2023-07-08T14:48:13;3.13;;;2.83;;
5923;SDS011;2987;50.884;14.818;2023-07-08T14:50:39;4.97;;;3.30;;
5923;SDS011;2987;50.884;14.818;2023-07-08T14:53:06;3.33;;;3.03;;
5923;SDS011;2987;50.884;14.818;2023-07-08T14:55:32;3.92;;;3.35;;
5923;SDS011;2987;50.884;14.818;2023-07-08T14:57:59;4.18;;;3.03;;
5923;SDS011;2987;50.884;14.818;2023-07-08T15:00:26;5.40;;;3.10;;
5923;SDS011;2987;50.884;14.818;2023-07-08T15:02:52;4.57;;;3.00;;
5923;SDS011;2987;50.884;14.818;2023-07-08T15:05:20;4.05;;;2.97;;
5923;SDS011;2987;50.884;14.818;2023-07-08T15:07:48;4.50;;;2.92;;
5923;SDS011;2987;50.884;14.818;2023-07-08T15:10:16;4.68;;;3.20;;
5923;SDS011;2987;50.884;14.818;2023-07-08T15:15:13;3.65;;;3.20;;
5923;SDS011;2987;50.884;14.818;2023-07-08T15:17:42;3.72;;;2.65;;
5923;SDS011;2987;50.884;14.818;2023-07-08T15:20:09;4.90;;;3.20;;
5923;SDS011;2987;50.884;14.818;2023-07-08T15:22:38;4.93;;;3.08;;
5923;SDS011;2987;50.884;14.818;2023-07-08T15:25:05;3.15;;;2.85;;
5923;SDS011;2987;50.884;14.818;2023-07-08T15:27:32;3.40;;;3.00;;
5923;SDS011;2987;50.884;14.818;2023-07-08T15:29:58;14.88;;;9.43;;
5923;SDS011;2987;50.884;14.818;2023-07-08T15:32:24;4.40;;;3.30;;
5923;SDS011;2987;50.884;14.818;2023-07-08T15:34:50;7.55;;;3.10;;
5923;SDS011;2987;50.884;14.818;2023-07-08T15:37:17;3.50;;;3.20;;
5923;SDS011;2987;50.884;14.818;2023-07-08T15:39:42;5.35;;;2.80;;
5923;SDS011;2987;50.884;14.818;2023-07-08T15:42:10;4.07;;;3.67;;
5923;SDS011;2987;50.884;14.818;2023-07-08T15:44:38;3.53;;;3.15;;
5923;SDS011;2987;50.884;14.818;2023-07-08T15:47:04;3.00;;;2.58;;
5923;SDS011;2987;50.884;14.818;2023-07-08T15:49:35;3.50;;;2.90;;
5923;SDS011;2987;50.884;14.818;2023-07-08T15:52:01;3.38;;;2.97;;
5923;SDS011;2987;50.884;14.818;2023-07-08T15:54:27;3.67;;;2.97;;
5923;SDS011;2987;50.884;14.818;2023-07-08T15:56:53;3.47;;;3.17;;
5923;SDS011;2987;50.884;14.818;2023-07-08T15:59:22;4.57;;;3.00;;
5923;SDS011;2987;50.884;14.818;2023-07-08T16:01:51;3.50;;;3.20;;
5923;SDS011;2987;50.884;14.818;2023-07-08T16:04:20;4.18;;;3.22;;
5923;SDS011;2987;50.884;14.818;2023-07-08T16:06:51;3.40;;;3.10;;
5923;SDS011;2987;50.884;14.818;2023-07-08T16:09:17;4.88;;;3.42;;
5923;SDS011;2987;50.884;14.818;2023-07-08T16:11:43;3.50;;;3.20;;
5923;SDS011;2987;50.884;14.818;2023-07-08T16:14:11;3.85;;;3.00;;
5923;SDS011;2987;50.884;14.818;2023-07-08T16:16:39;4.68;;;3.30;;
5923;SDS011;2987;50.884;14.818;2023-07-08T16:19:08;4.07;;;3.10;;
5923;SDS011;2987;50.884;14.818;2023-07-08T16:21:36;3.50;;;2.90;;
5923;SDS011;2987;50.884;14.818;2023-07-08T16:24:02;4.30;;;2.88;;